Time;durP1;ratioP1;P1;durP2;ratioP2;P2;SDS_P1;SDS_P2;PMS_P1;PMS_P2;Temp;Humidity;BMP_temperature;BMP_pressure;BME280_temperature;BME280_humidity;BME280_pressure;Samples;Min_cycle;Max_cycle;Signal;HPM_P1;HPM_P2
2022/06/18 00:01:53;;;;;;;10.77;7.57;;;;;;;12.83;80.95;99569.50;5032543;28;20033;-56
2022/06/18 00:04:23;;;;;;;9.77;7.82;;;;;;;12.87;80.73;99581.66;5031398;28;20030;-56
2022/06/18 00:06:57;;;;;;;10.32;7.80;;;;;;;12.91;80.98;99580.34;5032158;28;20079;-54
2022/06/18 00:09:30;;;;;;;10.52;7.20;;;;;;;12.86;80.67;99575.41;5032370;28;20087;-50
2022/06/18 00:14:49;;;;;;;14.40;7.60;;;;;;;12.82;80.70;99578.56;5031154;28;20025;-55
2022/06/18 00:17:17;;;;;;;10.38;7.05;;;;;;;12.81;80.98;99582.22;5032149;28;20038;-54
2022/06/18 00:19:43;;;;;;;11.38;7.70;;;;;;;12.77;80.97;99579.81;5032086;28;20116;-52
2022/06/18 00:22:12;;;;;;;10.32;7.85;;;;;;;12.80;81.12;99585.91;5031587;28;20059;-51
2022/06/18 00:24:38;;;;;;;8.52;7.15;;;;;;;12.72;80.63;99584.78;5031562;28;20049;-53
2022/06/18 00:27:04;;;;;;;11.32;7.57;;;;;;;12.72;80.58;99581.25;5031920;28;20049;-53
2022/06/18 00:29:29;;;;;;;16.35;7.60;;;;;;;12.67;80.80;99579.00;5031990;28;20037;-54
2022/06/18 00:31:54;;;;;;;11.30;6.72;;;;;;;12.70;80.79;99576.00;5031547;28;20072;-51
2022/06/18 00:34:20;;;;;;;9.38;6.75;;;;;;;12.68;80.67;99583.38;5031070;28;20037;-54
2022/06/18 00:36:45;;;;;;;10.30;6.30;;;;;;;12.69;80.71;99585.06;5031347;28;20025;-53
2022/06/18 00:39:16;;;;;;;12.00;6.68;;;;;;;12.73;80.66;99591.84;5031390;28;20025;-55
2022/06/18 00:41:44;;;;;;;8.88;6.53;;;;;;;12.68;80.69;99593.28;5031609;28;20026;-54
2022/06/18 00:44:29;;;;;;;14.05;6.38;;;;;;;12.76;80.50;99596.91;5030954;28;20025;-53
2022/06/18 00:47:08;;;;;;;9.95;5.93;;;;;;;12.64;80.20;99598.91;5031568;28;20496;-51
2022/06/18 00:49:53;;;;;;;10.85;5.68;;;;;;;12.76;80.49;99596.91;5030931;28;20053;-49
2022/06/18 00:52:25;;;;;;;7.40;5.53;;;;;;;12.69;80.31;99594.97;5030824;28;20037;-51
2022/06/18 00:55:13;;;;;;;8.13;5.55;;;;;;;12.75;80.11;99607.81;5031597;28;20029;-54
2022/06/18 00:57:46;;;;;;;8.02;5.70;;;;;;;12.66;79.94;99606.84;5031024;28;20031;-54
2022/06/18 01:00:23;;;;;;;6.88;5.57;;;;;;;12.71;80.37;99611.78;5030195;28;20033;-54
2022/06/18 01:02:49;;;;;;;8.90;5.75;;;;;;;12.63;80.35;99607.13;5012310;28;20042;-53
2022/06/18 01:05:24;;;;;;;7.40;5.10;;;;;;;12.71;80.38;99615.31;5011093;28;20026;-55
2022/06/18 01:07:56;;;;;;;7.15;5.63;;;;;;;12.53;80.22;99587.47;5015835;28;20028;-56
2022/06/18 01:10:33;;;;;;;7.20;5.40;;;;;;;12.73;80.01;99615.19;5030939;28;20025;-51
2022/06/18 01:13:02;;;;;;;9.23;5.80;;;;;;;12.67;80.04;99613.91;5030762;28;20060;-52
2022/06/18 01:15:28;;;;;;;10.05;5.50;;;;;;;12.53;79.86;99588.34;5031091;28;20072;-51
2022/06/18 01:17:54;;;;;;;8.20;5.20;;;;;;;12.70;80.01;99623.53;5031216;28;20141;-53
2022/06/18 01:20:22;;;;;;;7.22;5.30;;;;;;;12.71;80.03;99612.63;5030648;28;20029;-54
2022/06/18 01:22:53;;;;;;;11.30;5.78;;;;;;;12.70;79.84;99613.63;5029529;28;20033;-56
2022/06/18 01:25:22;;;;;;;11.18;5.35;;;;;;;12.74;79.69;99614.19;5030502;28;20053;-55
2022/06/18 01:27:48;;;;;;;10.25;5.57;;;;;;;12.71;79.72;99620.69;5030956;28;20045;-54
2022/06/18 01:30:18;;;;;;;8.50;5.25;;;;;;;12.80;79.85;99634.25;5030300;28;20465;-56
2022/06/18 01:32:45;;;;;;;10.25;5.30;;;;;;;12.79;79.47;99628.03;5030769;28;20029;-57
2022/06/18 01:35:12;;;;;;;7.75;5.00;;;;;;;12.73;79.40;99612.50;5031479;28;20030;-55
2022/06/18 01:37:38;;;;;;;6.03;5.05;;;;;;;12.81;79.35;99625.22;5031059;28;20033;-52
2022/06/18 01:40:05;;;;;;;9.77;5.50;;;;;;;12.78;79.15;99616.44;5030260;28;20041;-54
2022/06/18 01:42:39;;;;;;;9.32;5.43;;;;;;;12.91;79.47;99636.78;5030748;28;20037;-56
2022/06/18 01:45:10;;;;;;;8.43;5.40;;;;;;;12.90;79.12;99635.94;5029714;28;20041;-56
2022/06/18 01:47:44;;;;;;;6.97;4.97;;;;;;;12.95;78.99;99643.56;5030813;28;20045;-52
2022/06/18 01:50:17;;;;;;;6.55;4.82;;;;;;;12.95;79.20;99645.41;5030390;28;20037;-51
2022/06/18 01:52:47;;;;;;;7.88;4.65;;;;;;;12.96;78.92;99650.63;5031217;28;20513;-52
2022/06/18 01:55:27;;;;;;;9.90;4.95;;;;;;;13.03;78.66;99654.47;5031278;28;20113;-53
2022/06/18 01:58:01;;;;;;;6.93;5.60;;;;;;;13.02;78.51;99649.22;5029990;28;20034;-52
2022/06/18 02:00:28;;;;;;;9.18;4.93;;;;;;;13.03;78.26;99662.53;5030098;28;20124;-53
2022/06/18 02:02:56;;;;;;;6.03;4.82;;;;;;;13.06;78.12;99656.00;5030985;28;20036;-54
2022/06/18 02:05:22;;;;;;;12.50;5.05;;;;;;;13.06;77.90;99656.00;5030893;28;20131;-56
2022/06/18 02:07:49;;;;;;;7.88;5.38;;;;;;;13.14;77.90;99650.75;5030403;28;20128;-57
2022/06/18 02:10:28;;;;;;;10.50;5.45;;;;;;;13.28;77.63;99648.59;5030141;28;20029;-54
2022/06/18 02:12:57;;;;;;;9.82;5.30;;;;;;;13.29;77.27;99656.53;5030292;28;20029;-53
2022/06/18 02:15:46;;;;;;;8.25;5.05;;;;;;;13.40;76.99;99655.50;5030278;28;20045;-50
2022/06/18 02:18:15;;;;;;;8.48;4.63;;;;;;;13.36;76.42;99621.81;5029854;28;20034;-55
2022/06/18 02:20:48;;;;;;;8.75;4.75;;;;;;;13.73;75.96;99647.03;5029614;28;20076;-54
2022/06/18 02:23:17;;;;;;;11.93;4.90;;;;;;;13.97;74.94;99649.19;5030782;28;20037;-55
2022/06/18 02:25:42;;;;;;;8.23;5.07;;;;;;;14.17;73.63;99647.22;5030714;28;20050;-50
2022/06/18 02:28:18;;;;;;;8.30;4.50;;;;;;;14.54;72.66;99650.78;5029816;28;20422;-54
2022/06/18 02:30:43;;;;;;;;;;;;;;;15.01;72.41;99647.00;5030626;28;20552;-53
2022/06/18 02:33:41;;;;;;;6.80;4.40;;;;;;;15.27;70.76;99638.06;5030274;28;19913;-55
2022/06/18 02:36:14;;;;;;;5.65;4.07;;;;;;;15.57;68.72;99643.13;5030112;28;20730;-56
2022/06/18 02:38:41;;;;;;;6.97;4.10;;;;;;;15.98;67.02;99631.69;5028185;28;20087;-54
2022/06/18 02:41:08;;;;;;;8.27;4.00;;;;;;;16.52;64.63;99638.53;5029802;28;20037;-56
2022/06/18 02:43:34;;;;;;;6.00;4.30;;;;;;;16.98;62.65;99633.50;5029912;28;20083;-55
2022/06/18 02:46:00;;;;;;;6.90;3.70;;;;;;;17.22;61.54;99629.09;5030709;28;20121;-52
2022/06/18 02:48:29;;;;;;;8.75;3.55;;;;;;;17.44;60.82;99632.06;5033556;28;20053;-55
2022/06/18 02:50:57;;;;;;;5.95;3.92;;;;;;;17.51;59.90;99635.78;5033903;28;20025;-52
2022/06/18 02:53:22;;;;;;;6.53;4.03;;;;;;;17.46;59.76;99613.81;5033218;28;20037;-54
2022/06/18 02:55:52;;;;;;;8.43;4.00;;;;;;;17.54;59.87;99632.72;5033773;28;20036;-56
2022/06/18 02:58:20;;;;;;;7.85;3.63;;;;;;;17.76;59.04;99632.97;5033295;28;20389;-53
2022/06/18 03:00:53;;;;;;;5.82;3.75;;;;;;;18.15;58.37;99621.31;5033346;28;20044;-48
2022/06/18 03:03:22;;;;;;;4.82;3.17;;;;;;;18.47;56.69;99597.72;5034040;28;20025;-56
2022/06/18 03:05:48;;;;;;;5.75;3.42;;;;;;;19.13;54.53;99619.88;5032650;28;20286;-54
2022/06/18 03:08:14;;;;;;;5.60;3.00;;;;;;;19.70;53.45;99614.84;5033048;28;20029;-54
2022/06/18 03:13:25;;;;;;;3.85;2.55;;;;;;;20.23;50.41;99601.91;5033396;28;20084;-52
2022/06/18 03:15:54;;;;;;;2.25;2.05;;;;;;;20.78;49.16;99617.72;5032761;28;20056;-52
2022/06/18 03:18:23;;;;;;;3.10;2.80;;;;;;;21.28;47.61;99626.91;5034086;28;20049;-53
2022/06/18 03:21:15;;;;;;;3.40;1.92;;;;;;;21.75;45.73;99624.50;5034321;28;20068;-49
2022/06/18 03:23:41;;;;;;;3.10;2.08;;;;;;;21.83;44.94;99621.59;5033496;28;20037;-50
2022/06/18 03:26:07;;;;;;;2.28;1.92;;;;;;;22.12;44.04;99622.31;5032927;28;20096;-55
2022/06/18 03:28:32;;;;;;;4.00;2.10;;;;;;;22.35;42.98;99607.50;5033141;28;20029;-55
2022/06/18 03:30:58;;;;;;;3.55;1.90;;;;;;;22.58;43.30;99619.94;5033412;28;20030;-58
2022/06/18 03:33:24;;;;;;;1.90;1.80;;;;;;;22.93;41.82;99617.03;5031604;28;20037;-52
2022/06/18 03:35:51;;;;;;;3.72;1.75;;;;;;;23.26;41.16;99621.63;5032743;28;20025;-52
2022/06/18 03:38:17;;;;;;;2.05;1.80;;;;;;;23.61;39.93;99607.66;5033282;28;20049;-54
2022/06/18 03:40:44;;;;;;;1.70;1.60;;;;;;;24.04;38.80;99610.91;5032854;28;20033;-55
2022/06/18 03:43:11;;;;;;;3.72;1.85;;;;;;;24.50;37.27;99604.31;5032728;28;20474;-54
2022/06/18 03:45:45;;;;;;;4.68;1.63;;;;;;;25.08;37.73;99610.63;5032331;28;20052;-56
2022/06/18 03:48:21;;;;;;;1.80;1.70;;;;;;;25.30;35.70;99587.44;5032915;28;20084;-55
2022/06/18 03:50:47;;;;;;;1.48;1.38;;;;;;;25.73;35.45;99607.66;5033320;28;20030;-56
2022/06/18 03:53:13;;;;;;;2.20;1.40;;;;;;;26.29;34.04;99607.59;5032507;28;20041;-52
2022/06/18 03:55:38;;;;;;;1.65;1.42;;;;;;;27.04;31.76;99613.59;5031679;28;20396;-55
2022/06/18 03:58:04;;;;;;;2.35;1.30;;;;;;;27.67;30.14;99613.94;5031584;28;20116;-56
2022/06/18 04:00:30;;;;;;;1.98;1.30;;;;;;;28.03;29.85;99606.41;5032335;28;20029;-54
2022/06/18 04:02:55;;;;;;;3.30;1.33;;;;;;;28.39;29.91;99611.78;5032487;28;20535;-53
2022/06/18 04:05:20;;;;;;;2.00;1.48;;;;;;;28.63;28.95;99614.41;5031911;28;20435;-52
2022/06/18 04:07:46;;;;;;;3.53;1.40;;;;;;;29.00;27.26;99600.19;5032480;28;20038;-52
2022/06/18 04:10:18;;;;;;;1.88;1.27;;;;;;;30.00;27.49;99623.31;5032758;28;20028;-56
2022/06/18 04:12:44;;;;;;;2.20;0.95;;;;;;;30.26;26.07;99620.03;5032372;28;20029;-54
2022/06/18 04:15:11;;;;;;;1.65;1.00;;;;;;;31.05;24.48;99615.78;5031029;28;20033;-57
2022/06/18 04:17:37;;;;;;;2.45;1.30;;;;;;;31.79;23.09;99620.69;5032303;28;20040;-57
2022/06/18 04:20:03;;;;;;;2.90;1.23;;;;;;;32.24;22.68;99634.13;5032107;28;20041;-53
2022/06/18 04:22:29;;;;;;;3.72;1.50;;;;;;;32.65;22.01;99628.66;5031781;28;20029;-57
2022/06/18 04:24:54;;;;;;;3.00;1.17;;;;;;;33.23;20.89;99627.53;5031046;28;20416;-55
2022/06/18 04:27:20;;;;;;;1.50;1.10;;;;;;;33.71;20.61;99626.34;5031810;28;20037;-56
2022/06/18 04:29:45;;;;;;;1.65;1.13;;;;;;;34.20;20.38;99624.75;5030474;28;20540;-56
2022/06/18 04:32:11;;;;;;;2.65;1.15;;;;;;;34.75;19.27;99615.47;5031680;28;20083;-53
2022/06/18 04:34:36;;;;;;;3.80;0.98;;;;;;;35.19;18.76;99630.38;5030523;28;20377;-52
2022/06/18 04:37:02;;;;;;;6.40;1.13;;;;;;;35.32;18.21;99607.44;5031635;28;20033;-56
2022/06/18 04:39:27;;;;;;;1.35;1.05;;;;;;;35.74;18.25;99621.72;5030165;28;20055;-54
2022/06/18 04:41:53;;;;;;;0.95;0.80;;;;;;;36.39;16.75;99630.63;5031499;28;20083;-54
2022/06/18 04:44:18;;;;;;;1.58;0.90;;;;;;;36.99;16.21;99625.47;5031313;28;20018;-56
2022/06/18 04:46:43;;;;;;;2.67;0.80;;;;;;;37.67;15.06;99625.91;5031257;28;20045;-55
2022/06/18 04:49:09;;;;;;;1.50;0.60;;;;;;;38.04;14.29;99634.38;5031245;28;20478;-56
2022/06/18 04:51:34;;;;;;;3.10;0.95;;;;;;;37.86;14.57;99625.81;5031158;28;20037;-56
2022/06/18 04:54:00;;;;;;;1.33;0.90;;;;;;;38.38;14.71;99633.06;5030899;28;20394;-51
2022/06/18 04:56:25;;;;;;;1.90;0.90;;;;;;;38.97;14.00;99615.41;5031079;28;20551;-55
2022/06/18 04:58:51;;;;;;;1.52;1.00;;;;;;;39.17;13.49;99630.03;5031696;28;20036;-49
2022/06/18 05:01:19;;;;;;;2.15;0.90;;;;;;;39.69;13.54;99643.44;5030726;28;20413;-62
2022/06/18 05:03:45;;;;;;;0.98;0.68;;;;;;;39.81;13.28;99625.16;5030785;28;20037;-63
2022/06/18 05:06:11;;;;;;;1.02;1.00;;;;;;;39.93;13.11;99645.00;5029927;28;20037;-64
2022/06/18 05:08:36;;;;;;;2.80;0.82;;;;;;;40.51;12.22;99639.31;5031268;28;20481;-61
2022/06/18 05:11:02;;;;;;;1.75;0.85;;;;;;;40.88;12.17;99639.78;5030750;28;20041;-62
2022/06/18 05:13:29;;;;;;;3.30;0.80;;;;;;;40.90;12.51;99645.91;5030908;28;20037;-61
2022/06/18 05:15:57;;;;;;;0.90;0.90;;;;;;;41.41;12.04;99650.03;5031229;28;20379;-61
2022/06/18 05:18:27;;;;;;;0.90;0.88;;;;;;;42.07;11.06;99651.56;5029113;28;20029;-61
2022/06/18 05:20:53;;;;;;;2.90;0.80;;;;;;;42.11;10.87;99652.50;5030954;28;20080;-61
2022/06/18 05:23:19;;;;;;;1.25;0.80;;;;;;;42.41;10.91;99646.81;5030347;28;20021;-63
2022/06/18 05:25:46;;;;;;;4.60;0.77;;;;;;;42.17;10.58;99628.63;5030587;28;20048;-61
2022/06/18 05:28:13;;;;;;;0.70;0.70;;;;;;;42.24;10.35;99641.34;5020284;28;20036;-62
2022/06/18 05:30:39;;;;;;;0.60;0.60;;;;;;;42.14;10.30;99634.94;5010869;28;20139;-61
2022/06/18 05:33:05;;;;;;;2.78;0.82;;;;;;;42.71;10.10;99648.72;5011029;28;20112;-62
2022/06/18 05:35:35;;;;;;;2.35;0.70;;;;;;;43.74;9.51;99657.56;5024485;28;20095;-64
2022/06/18 05:38:01;;;;;;;0.50;0.50;;;;;;;44.27;9.22;99642.66;5031007;28;20037;-63
2022/06/18 05:40:26;;;;;;;0.70;0.60;;;;;;;44.70;8.44;99635.47;5030199;28;20033;-63
2022/06/18 05:42:53;;;;;;;0.80;0.70;;;;;;;44.99;8.56;99639.09;5030894;28;20120;-64
2022/06/18 05:45:19;;;;;;;0.70;0.70;;;;;;;45.09;8.03;99648.22;5030588;28;20038;-62
2022/06/18 05:47:45;;;;;;;1.45;0.82;;;;;;;45.13;8.34;99637.84;5030762;28;20063;-64
2022/06/18 05:50:14;;;;;;;0.63;0.63;;;;;;;45.52;8.38;99632.38;5030590;28;20052;-64
2022/06/18 05:52:40;;;;;;;2.35;0.88;;;;;;;45.57;7.64;99646.22;5030631;28;20025;-64
2022/06/18 05:55:06;;;;;;;1.50;0.80;;;;;;;45.97;7.95;99641.53;5029522;28;20034;-65
2022/06/18 05:57:31;;;;;;;1.30;0.70;;;;;;;45.78;7.84;99647.94;5030142;28;20036;-63
2022/06/18 05:59:56;;;;;;;1.23;0.70;;;;;;;45.30;8.16;99642.31;5030682;28;20323;-64
2022/06/18 06:02:22;;;;;;;1.80;0.90;;;;;;;45.48;7.68;99654.09;5030159;28;20112;-64
2022/06/18 06:04:48;;;;;;;2.97;0.80;;;;;;;45.15;7.90;99641.13;5030969;28;20030;-66
2022/06/18 06:07:16;;;;;;;1.50;0.70;;;;;;;44.74;8.43;99641.22;5030150;28;20488;-65
2022/06/18 06:12:27;;;;;;;0.90;0.80;;;;;;;44.30;8.91;99636.31;5030452;28;20026;-66
2022/06/18 06:14:52;;;;;;;1.00;0.90;;;;;;;44.26;8.56;99619.28;5029936;28;20045;-67
2022/06/18 06:17:23;;;;;;;1.00;0.90;;;;;;;43.78;9.22;99637.94;5030061;28;20064;-66
2022/06/18 06:19:48;;;;;;;1.33;1.00;;;;;;;43.06;9.54;99630.69;5029838;28;20091;-67
2022/06/18 06:22:14;;;;;;;1.75;0.88;;;;;;;43.71;9.56;99616.78;5031882;28;20509;-64
2022/06/18 06:24:40;;;;;;;2.65;0.90;;;;;;;44.43;8.94;99625.78;5033702;28;20100;-65
2022/06/18 06:27:05;;;;;;;0.90;0.90;;;;;;;45.61;8.37;99635.00;5033872;28;20382;-66
2022/06/18 06:29:32;;;;;;;0.90;0.90;;;;;;;46.76;7.17;99629.41;5033581;28;20030;-64
2022/06/18 06:31:57;;;;;;;0.88;0.88;;;;;;;46.92;6.96;99607.50;5032850;28;20412;-67
2022/06/18 06:34:24;;;;;;;1.13;0.90;;;;;;;47.11;6.92;99634.16;5033707;28;20033;-66
2022/06/18 06:36:51;;;;;;;2.15;0.80;;;;;;;47.43;7.06;99636.72;5032253;28;20036;-67
2022/06/18 06:39:16;;;;;;;1.73;0.90;;;;;;;47.75;6.58;99632.78;5017667;28;20030;-68
2022/06/18 06:41:43;;;;;;;2.50;0.80;;;;;;;48.06;6.73;99631.63;5021574;28;20040;-67
2022/06/18 06:44:09;;;;;;;3.25;0.85;;;;;;;48.63;6.08;99632.75;5032692;28;20044;-64
2022/06/18 06:46:35;;;;;;;2.65;1.00;;;;;;;48.89;5.88;99637.47;5026657;28;20343;-66
2022/06/18 06:49:00;;;;;;;1.85;1.00;;;;;;;49.53;5.47;99625.09;5014363;28;20040;-65
2022/06/18 06:51:28;;;;;;;0.95;0.80;;;;;;;48.65;6.12;99638.84;5028125;28;20496;-66
2022/06/18 06:53:54;;;;;;;1.27;0.90;;;;;;;47.31;6.92;99626.41;5033385;28;20442;-63
2022/06/18 06:59:06;;;;;;;0.80;0.80;;;;;;;46.29;7.39;99634.94;5031630;28;20037;-67
2022/06/18 07:01:34;;;;;;;1.75;1.00;;;;;;;46.81;7.32;99629.94;5032642;28;20426;-66
2022/06/18 07:04:00;;;;;;;1.55;1.00;;;;;;;48.28;6.15;99632.72;5033839;28;20470;-66
2022/06/18 07:06:26;;;;;;;1.85;0.95;;;;;;;49.10;6.12;99631.19;5033072;28;20116;-63
2022/06/18 07:08:52;;;;;;;0.93;0.93;;;;;;;48.92;6.11;99625.34;5032611;28;20535;-64
2022/06/18 07:11:18;;;;;;;2.08;1.13;;;;;;;48.89;5.95;99626.13;5033073;28;20025;-65
2022/06/18 07:13:43;;;;;;;1.23;0.90;;;;;;;48.98;6.26;99615.28;5032608;28;20064;-65
2022/06/18 07:16:11;;;;;;;1.98;0.90;;;;;;;49.16;5.60;99623.13;5031993;28;20057;-65
2022/06/18 07:18:37;;;;;;;1.27;1.10;;;;;;;49.17;5.99;99619.09;5032930;28;20439;-64
2022/06/18 07:21:05;;;;;;;1.20;1.10;;;;;;;48.73;6.39;99617.81;5030932;28;20426;-66
2022/06/18 07:23:32;;;;;;;2.38;1.23;;;;;;;48.81;6.24;99618.75;5032899;28;20036;-65
2022/06/18 07:25:58;;;;;;;3.08;1.38;;;;;;;49.56;5.78;99618.59;5030869;28;20434;-66
2022/06/18 07:28:24;;;;;;;3.60;1.45;;;;;;;50.51;5.43;99619.88;5032119;28;20183;-65
2022/06/18 07:30:50;;;;;;;1.35;1.35;;;;;;;51.67;5.10;99622.06;5032758;28;20091;-67
2022/06/18 07:33:25;;;;;;;1.83;1.40;;;;;;;52.59;4.28;99618.47;5032658;28;20021;-66
2022/06/18 07:35:51;;;;;;;2.90;1.60;;;;;;;52.73;4.18;99600.44;4999609;28;20436;-66
2022/06/18 07:38:17;;;;;;;2.63;1.88;;;;;;;53.44;3.62;99622.34;5032369;28;20434;-66
2022/06/18 07:40:49;;;;;;;3.60;2.20;;;;;;;54.01;3.34;99620.88;5030213;28;20025;-65
2022/06/18 07:43:19;;;;;;;2.08;1.98;;;;;;;54.69;3.17;99623.28;5031849;28;20064;-65
2022/06/18 07:45:46;;;;;;;2.42;2.33;;;;;;;54.55;3.20;99615.72;5019700;28;20028;-67
2022/06/18 07:48:13;;;;;;;2.83;2.55;;;;;;;54.32;3.36;99609.47;5031929;28;20486;-65
2022/06/18 07:50:43;;;;;;;2.92;2.72;;;;;;;54.21;3.23;99614.53;5032219;28;20053;-65
2022/06/18 07:53:15;;;;;;;2.50;2.30;;;;;;;54.18;3.43;99615.41;5031194;28;20449;-65
2022/06/18 07:55:40;;;;;;;2.50;2.30;;;;;;;53.60;3.28;99607.47;5031480;28;20037;-64
2022/06/18 07:58:06;;;;;;;3.33;2.78;;;;;;;53.58;3.58;99601.34;5031966;28;20025;-66
2022/06/18 08:00:31;;;;;;;2.50;2.38;;;;;;;53.75;3.24;99596.69;5033195;28;20026;-63
2022/06/18 08:02:58;;;;;;;2.63;2.53;;;;;;;53.86;3.14;99600.22;5022929;28;20025;-64
2022/06/18 08:05:27;;;;;;;2.83;2.63;;;;;;;53.72;3.44;99609.78;5012374;28;20088;-64
2022/06/18 08:07:53;;;;;;;2.92;2.72;;;;;;;52.72;3.67;99603.69;5012329;28;20121;-60
2022/06/18 08:10:18;;;;;;;5.03;2.55;;;;;;;50.97;4.93;99571.97;5013114;28;20141;-60
2022/06/18 08:12:45;;;;;;;3.10;1.95;;;;;;;48.92;5.72;99596.91;5012287;28;20045;-60
2022/06/18 08:15:11;;;;;;;2.05;1.70;;;;;;;45.93;7.75;99595.34;5022019;28;20531;-62
2022/06/18 08:17:37;;;;;;;2.58;1.50;;;;;;;44.46;8.73;99594.03;5032172;28;20116;-62
2022/06/18 08:20:05;;;;;;;2.55;1.20;;;;;;;42.39;9.72;99590.06;5031341;28;20091;-59
2022/06/18 08:22:33;;;;;;;3.25;1.30;;;;;;;39.47;11.67;99605.13;5012305;28;20026;-60
2022/06/18 08:25:00;;;;;;;1.90;1.35;;;;;;;36.77;13.69;99611.06;5025680;28;20071;-59
2022/06/18 08:27:26;;;;;;;2.28;1.13;;;;;;;35.17;15.50;99599.25;5030810;28;20509;-61
2022/06/18 08:29:51;;;;;;;4.57;1.25;;;;;;;33.87;17.00;99580.72;5030403;28;20118;-61
2022/06/18 08:32:17;;;;;;;1.10;1.00;;;;;;;32.95;18.04;99593.75;5031195;28;20478;-60
2022/06/18 08:34:42;;;;;;;4.32;0.98;;;;;;;32.18;19.25;99578.72;5031410;28;20029;-60
2022/06/18 08:37:09;;;;;;;1.45;0.90;;;;;;;31.62;19.71;99607.88;5030139;28;20061;-63
2022/06/18 08:39:35;;;;;;;1.60;0.80;;;;;;;31.24;20.00;99590.50;5031149;28;20045;-60
2022/06/18 08:42:19;;;;;;;3.50;0.93;;;;;;;30.72;20.58;99579.06;5031985;28;20064;-60
2022/06/18 08:44:48;;;;;;;3.22;1.50;;;;;;;30.31;20.86;99589.72;5029209;28;20038;-61
2022/06/18 08:47:35;;;;;;;1.98;0.93;;;;;;;29.73;21.74;99591.00;5029778;28;20037;-60
2022/06/18 08:50:10;;;;;;;2.60;1.27;;;;;;;29.30;22.49;99576.06;5030903;28;20083;-59
2022/06/18 08:53:07;;;;;;;2.45;1.02;;;;;;;29.36;21.41;99586.91;5030347;28;20045;-59
2022/06/18 08:55:46;;;;;;;4.03;1.20;;;;;;;29.31;22.75;99586.84;5029226;28;20453;-60
2022/06/18 08:58:42;;;;;;;5.05;1.33;;;;;;;29.55;21.47;99567.31;4994211;28;20030;-60
2022/06/18 09:01:07;;;;;;;;;;;;;;;30.19;20.14;99590.72;5025706;28;20067;-61
2022/06/18 09:03:49;;;;;;;1.20;1.10;;;;;;;29.82;21.81;99590.56;5030396;28;19948;-59
2022/06/18 09:06:33;;;;;;;1.38;0.90;;;;;;;29.72;21.91;99578.28;5030986;28;20548;-62
2022/06/18 09:09:11;;;;;;;1.42;0.90;;;;;;;29.89;21.73;99578.19;5029459;28;20961;-61
2022/06/18 09:12:11;;;;;;;2.72;1.20;;;;;;;30.07;21.33;99584.50;5011374;28;20128;-59
2022/06/18 09:14:56;;;;;;;1.90;0.82;;;;;;;29.78;20.66;99587.47;5015725;28;20037;-60
2022/06/18 09:17:36;;;;;;;0.90;0.90;;;;;;;29.26;21.20;99585.94;5030932;28;20041;-61
2022/06/18 09:20:06;;;;;;;0.80;0.80;;;;;;;28.81;22.16;99579.47;5030471;28;20457;-64
2022/06/18 09:22:37;;;;;;;3.75;0.90;;;;;;;28.39;23.48;99578.75;5030629;28;20030;-58
2022/06/18 09:25:27;;;;;;;2.03;1.10;;;;;;;28.36;22.55;99587.50;5026678;28;20094;-58
2022/06/18 09:28:04;;;;;;;2.85;1.25;;;;;;;28.19;23.72;99590.25;5030455;28;20069;-63
2022/06/18 09:30:36;;;;;;;2.88;1.17;;;;;;;28.06;23.97;99591.34;5022040;28;20076;-60
2022/06/18 09:33:06;;;;;;;2.55;1.00;;;;;;;27.82;24.02;99588.69;5030170;28;20048;-58
2022/06/18 09:35:51;;;;;;;2.20;0.85;;;;;;;28.10;23.63;99575.19;5028930;28;20041;-60
2022/06/18 09:38:23;;;;;;;0.88;0.80;;;;;;;28.04;24.11;99594.31;5030527;28;20030;-61
2022/06/18 09:40:55;;;;;;;1.98;0.82;;;;;;;27.89;23.20;99592.13;5030079;28;20102;-59
2022/06/18 09:43:37;;;;;;;1.52;0.70;;;;;;;27.48;24.29;99599.47;5030111;28;20036;-59
2022/06/18 09:46:07;;;;;;;2.25;0.73;;;;;;;26.89;24.92;99583.88;5030308;28;20033;-61
2022/06/18 09:48:33;;;;;;;0.70;0.70;;;;;;;26.28;25.97;99568.31;5029990;28;20454;-61
2022/06/18 09:51:04;;;;;;;2.75;0.82;;;;;;;26.19;25.94;99597.19;5030243;28;20084;-58
2022/06/18 09:53:35;;;;;;;1.00;0.90;;;;;;;26.04;26.28;99589.31;5029547;28;20025;-59
2022/06/18 09:56:08;;;;;;;3.10;1.38;;;;;;;25.79;26.48;99568.34;5014088;28;20037;-59
2022/06/18 09:59:17;;;;;;;1.45;1.35;;;;;;;26.09;25.81;99590.28;5030910;28;20029;-60
2022/06/18 10:01:53;;;;;;;1.52;1.42;;;;;;;25.77;26.92;99593.25;4999400;28;20124;-61
2022/06/18 10:07:15;;;;;;;0.88;0.80;;;;;;;25.01;28.09;99593.41;5034048;28;20529;-60
2022/06/18 10:10:15;;;;;;;2.47;1.02;;;;;;;24.97;28.09;99592.19;5033929;28;20068;-60
2022/06/18 10:12:44;;;;;;;2.10;0.93;;;;;;;24.49;28.47;99593.59;5012289;28;20037;-59
2022/06/18 10:15:13;;;;;;;3.03;1.08;;;;;;;24.33;29.09;99589.47;5034264;28;20025;-59
2022/06/18 10:18:06;;;;;;;2.70;1.23;;;;;;;24.84;27.90;99586.81;5033383;28;20041;-60
2022/06/18 10:20:41;;;;;;;2.63;1.20;;;;;;;25.37;28.01;99589.06;5033922;28;20056;-60
2022/06/18 10:23:36;;;;;;;2.35;1.13;;;;;;;25.86;26.84;99582.81;5034141;28;20068;-59
2022/06/18 10:26:20;;;;;;;1.00;0.90;;;;;;;25.88;27.35;99580.69;5033616;28;20056;-62
2022/06/18 10:28:55;;;;;;;2.33;1.00;;;;;;;25.85;27.71;99575.66;5034119;28;20069;-60
2022/06/18 10:31:38;;;;;;;2.33;0.82;;;;;;;25.97;26.33;99588.56;5034421;28;20125;-59
2022/06/18 10:34:37;;;;;;;0.73;0.73;;;;;;;25.77;26.83;99576.81;5034076;28;20118;-61
2022/06/18 10:37:34;;;;;;;2.25;0.80;;;;;;;25.47;27.14;99560.31;5017614;28;20045;-59
2022/06/18 10:40:05;;;;;;;1.77;0.80;;;;;;;25.41;27.43;99585.84;5032234;28;20025;-59
2022/06/18 10:43:05;;;;;;;0.80;0.80;;;;;;;25.45;27.27;99587.06;5033349;28;20033;-60
2022/06/18 10:45:45;;;;;;;1.83;0.90;;;;;;;25.58;26.92;99588.84;5028608;28;20049;-60
2022/06/18 10:48:18;;;;;;;1.92;0.90;;;;;;;25.63;26.72;99584.38;5033718;28;20037;-59
2022/06/18 10:50:51;;;;;;;1.38;0.80;;;;;;;25.73;26.53;99572.00;5033486;28;20034;-59
2022/06/18 10:53:19;;;;;;;2.15;0.70;;;;;;;25.92;26.65;99592.00;5034028;28;20045;-58
2022/06/18 10:56:15;;;;;;;6.22;1.15;;;;;;;26.32;25.87;99582.44;5033689;28;20044;-63
2022/06/18 10:58:59;;;;;;;5.13;1.23;;;;;;;26.64;25.63;99582.94;5032227;28;20538;-57
2022/06/18 11:01:38;;;;;;;2.05;1.10;;;;;;;26.84;25.34;99575.47;5033917;28;20034;-62
2022/06/18 11:04:24;;;;;;;1.85;1.00;;;;;;;27.13;25.07;99581.13;5032413;28;20033;-66
2022/06/18 11:06:56;;;;;;;3.67;0.85;;;;;;;27.16;24.60;99588.88;5031800;28;20021;-58
2022/06/18 11:09:24;;;;;;;1.70;1.10;;;;;;;27.18;24.89;99581.22;5032911;28;20043;-61
2022/06/18 11:12:02;;;;;;;2.58;0.90;;;;;;;27.20;24.44;99576.31;5033119;28;20032;-63
2022/06/18 11:14:38;;;;;;;1.08;0.80;;;;;;;27.00;24.55;99573.97;5033112;28;20029;-60
2022/06/18 11:17:21;;;;;;;0.73;0.73;;;;;;;26.98;24.55;99576.09;5032750;28;20040;-59
2022/06/18 11:19:50;;;;;;;0.80;0.80;;;;;;;26.55;24.61;99567.91;5033542;28;20029;-64
2022/06/18 11:22:27;;;;;;;1.52;0.80;;;;;;;26.57;25.59;99560.28;5033604;28;20064;-62
2022/06/18 11:24:55;;;;;;;1.38;0.98;;;;;;;26.23;25.84;99569.03;5033265;28;20048;-61
2022/06/18 11:27:22;;;;;;;1.83;1.20;;;;;;;25.99;26.51;99556.25;5032637;28;20061;-60
2022/06/18 11:29:54;;;;;;;1.45;1.30;;;;;;;25.76;27.01;99566.06;5033125;28;20323;-64
2022/06/18 11:32:36;;;;;;;4.10;0.90;;;;;;;25.59;27.35;99533.81;5033200;28;20438;-62
2022/06/18 11:35:22;;;;;;;1.98;0.80;;;;;;;25.46;27.98;99537.53;5032971;28;20045;-58
2022/06/18 11:37:59;;;;;;;3.63;1.00;;;;;;;25.66;27.62;99555.63;5028474;28;20037;-66
2022/06/18 11:40:24;;;;;;;2.83;1.00;;;;;;;25.49;26.62;99541.72;5033212;28;20111;-59
2022/06/18 11:42:58;;;;;;;1.05;0.75;;;;;;;25.57;26.67;99537.84;5065397;28;20469;-61
2022/06/18 11:45:30;;;;;;;0.80;0.57;;;;;;;25.55;25.86;99527.09;5032578;28;20106;-59
2022/06/18 11:48:18;;;;;;;5.47;0.80;;;;;;;25.54;25.83;99508.97;5032877;28;20041;-58
2022/06/18 11:50:50;;;;;;;1.02;0.77;;;;;;;25.47;26.01;99522.78;5031498;28;20432;-58
2022/06/18 11:53:31;;;;;;;1.50;0.98;;;;;;;25.63;25.98;99531.41;5031547;28;20034;-60
2022/06/18 11:55:57;;;;;;;2.95;1.20;;;;;;;25.59;25.54;99525.59;5031626;28;20033;-58
2022/06/18 11:58:28;;;;;;;1.02;0.80;;;;;;;25.73;25.64;99515.28;5031791;28;20041;-60
2022/06/18 12:01:04;;;;;;;2.42;0.80;;;;;;;25.95;24.96;99520.25;5014768;28;20494;-61
2022/06/18 12:03:38;;;;;;;1.10;0.90;;;;;;;26.01;25.34;99523.94;5032071;28;20033;-61
2022/06/18 12:06:13;;;;;;;1.52;1.00;;;;;;;26.09;24.91;99526.38;5031703;28;20033;-59